createdAt,value
2023-05-04T00:03:11.090Z,4.43
2023-05-04T00:08:12.878Z,4.47
2023-05-04T00:13:14.712Z,4.93
2023-05-04T00:18:16.737Z,4.28
2023-05-04T00:23:18.752Z,4.82
2023-05-04T00:28:20.669Z,4.70
2023-05-04T00:33:22.521Z,4.40
2023-05-04T00:38:24.351Z,4.60
2023-05-04T00:43:26.792Z,4.97
2023-05-04T00:48:28.638Z,4.10
2023-05-04T00:53:30.890Z,4.65
2023-05-04T00:58:33.459Z,4.97
2023-05-04T01:03:35.424Z,4.95
2023-05-04T01:08:44.970Z,4.72
2023-05-04T01:13:48.233Z,4.80
2023-05-04T01:18:50.105Z,4.65
2023-05-04T01:23:51.951Z,5.13
2023-05-04T01:29:21.049Z,4.90
2023-05-04T01:34:23.347Z,4.93
2023-05-04T01:39:25.173Z,4.75
2023-05-04T01:44:27.010Z,4.90
2023-05-04T01:49:28.874Z,5.32
2023-05-04T01:54:30.772Z,5.22
2023-05-04T01:59:32.784Z,4.68
2023-05-04T02:04:35.561Z,4.65
2023-05-04T02:09:37.394Z,4.75
2023-05-04T02:14:39.474Z,4.40
2023-05-04T02:19:41.239Z,4.45
2023-05-04T02:24:44.320Z,4.53
2023-05-04T02:29:46.162Z,4.72
2023-05-04T02:34:47.905Z,4.47
2023-05-04T02:39:49.696Z,4.78
2023-05-04T02:44:51.555Z,5.28
2023-05-04T02:49:53.506Z,4.25
2023-05-04T02:54:55.340Z,4.47
2023-05-04T02:59:57.216Z,5.40
2023-05-04T03:04:59.111Z,5.43
2023-05-04T03:10:01.908Z,5.28
2023-05-04T03:15:04.127Z,5.15
2023-05-04T03:20:07.236Z,5.00
2023-05-04T03:25:09.709Z,4.20
2023-05-04T03:30:12.396Z,4.78
2023-05-04T03:35:14.619Z,4.97
2023-05-04T03:40:22.333Z,4.90
2023-05-04T03:45:28.468Z,5.63
2023-05-04T03:50:31.967Z,5.28
2023-05-04T03:55:34.024Z,5.20
2023-05-04T04:00:36.240Z,5.30
2023-05-04T04:05:45.836Z,5.15
2023-05-04T04:10:47.871Z,4.95
2023-05-04T04:15:50.360Z,5.13
2023-05-04T04:20:52.257Z,4.70
2023-05-04T04:25:54.062Z,4.72
2023-05-04T04:30:56.069Z,5.38
2023-05-04T04:35:57.867Z,4.88
2023-05-04T04:40:59.654Z,4.90
2023-05-04T04:46:02.151Z,4.90
2023-05-04T04:51:05.637Z,5.00
2023-05-04T04:56:07.657Z,5.28
2023-05-04T05:01:09.651Z,5.22
2023-05-04T05:06:12.694Z,5.22
2023-05-04T05:11:14.438Z,4.85
2023-05-04T05:16:16.323Z,4.07
2023-05-04T05:21:18.390Z,3.58
2023-05-04T05:26:20.264Z,3.38
2023-05-04T05:31:22.295Z,3.15
2023-05-04T05:36:24.269Z,2.88
2023-05-04T05:41:26.082Z,3.67
2023-05-04T05:46:28.314Z,3.58
2023-05-04T05:51:30.234Z,3.70
2023-05-04T05:56:32.461Z,3.40
2023-05-04T06:01:34.282Z,3.85
2023-05-04T06:06:36.558Z,5.88
2023-05-04T06:11:38.578Z,4.75
2023-05-04T06:16:40.463Z,5.85
2023-05-04T06:21:42.235Z,4.78
2023-05-04T06:26:44.000Z,5.00
2023-05-04T06:31:48.802Z,5.40
2023-05-04T06:36:50.892Z,5.55
2023-05-04T06:41:55.668Z,5.68
2023-05-04T06:46:57.431Z,5.53
2023-05-04T06:51:59.697Z,7.05
2023-05-04T06:57:03.266Z,6.03
2023-05-04T07:02:05.030Z,5.45
2023-05-04T07:07:06.781Z,5.63
2023-05-04T07:12:08.583Z,6.45
2023-05-04T07:17:10.419Z,5.45
2023-05-04T07:22:12.393Z,5.00
2023-05-04T07:27:14.139Z,5.70
2023-05-04T07:32:15.953Z,5.18
2023-05-04T07:37:17.792Z,5.03
2023-05-04T07:42:19.542Z,5.70
2023-05-04T07:47:21.931Z,5.15
2023-05-04T07:52:24.480Z,4.70
2023-05-04T07:57:26.333Z,5.00
2023-05-04T08:02:28.253Z,7.90
2023-05-04T08:07:30.282Z,5.88
2023-05-04T08:12:32.480Z,6.10
2023-05-04T08:17:39.374Z,5.43
2023-05-04T08:22:41.242Z,5.90
2023-05-04T08:27:43.041Z,5.90
2023-05-04T08:32:45.202Z,5.45
2023-05-04T08:37:48.121Z,5.20
2023-05-04T08:42:53.655Z,5.88
2023-05-04T08:47:55.527Z,5.55
2023-05-04T08:53:00.952Z,5.35
2023-05-04T08:58:06.277Z,5.35
2023-05-04T09:03:10.676Z,4.50
2023-05-04T09:08:12.733Z,6.00
2023-05-04T09:13:14.799Z,5.38
2023-05-04T09:18:16.850Z,5.35
2023-05-04T09:23:19.315Z,5.82
2023-05-04T09:28:33.784Z,5.90
2023-05-04T09:33:35.643Z,4.57
2023-05-04T09:38:37.471Z,5.03
2023-05-04T09:43:43.770Z,4.97
2023-05-04T09:48:57.306Z,4.88
2023-05-04T09:54:03.296Z,6.03
2023-05-04T09:59:05.935Z,5.28
2023-05-04T10:04:08.014Z,4.47
2023-05-04T10:09:11.554Z,4.72
2023-05-04T10:14:13.630Z,4.00
2023-05-04T10:19:27.629Z,4.47
2023-05-04T10:24:40.750Z,4.97
2023-05-04T10:29:43.448Z,4.85
2023-05-04T10:34:45.362Z,4.65
2023-05-04T10:39:54.314Z,4.03
2023-05-04T10:44:56.901Z,4.13
2023-05-04T10:50:09.783Z,4.22
2023-05-04T10:55:11.672Z,4.72
2023-05-04T11:00:14.509Z,4.45
2023-05-04T11:05:19.575Z,3.92
2023-05-04T11:10:26.214Z,3.75
2023-05-04T11:15:28.002Z,3.75
2023-05-04T11:20:29.964Z,3.55
2023-05-04T11:25:33.333Z,3.35
2023-05-04T11:30:35.900Z,3.88
2023-05-04T11:35:37.972Z,3.50
2023-05-04T11:40:47.322Z,3.50
2023-05-04T11:45:49.330Z,3.33
2023-05-04T11:50:51.916Z,3.72
2023-05-04T11:55:54.467Z,4.03
2023-05-04T12:00:57.520Z,3.58
2023-05-04T12:06:01.693Z,3.78
2023-05-04T12:11:12.857Z,3.38
2023-05-04T12:16:16.921Z,3.38
2023-05-04T12:21:20.027Z,3.45
2023-05-04T12:26:21.761Z,4.15
2023-05-04T12:31:25.259Z,3.95
2023-05-04T12:36:27.238Z,3.30
2023-05-04T12:41:29.004Z,3.47
2023-05-04T12:46:30.921Z,3.30
2023-05-04T12:51:32.841Z,2.75
2023-05-04T12:56:34.919Z,3.53
2023-05-04T13:01:36.926Z,3.63
2023-05-04T13:06:38.895Z,3.35
2023-05-04T13:11:40.620Z,3.08
2023-05-04T13:16:42.440Z,3.50
2023-05-04T13:21:44.251Z,3.13
2023-05-04T13:26:46.082Z,2.80
2023-05-04T13:31:47.981Z,3.38
2023-05-04T13:36:49.784Z,3.20
2023-05-04T13:41:52.787Z,3.63
2023-05-04T13:46:54.598Z,3.60
2023-05-04T13:51:57.262Z,3.50
2023-05-04T13:56:59.103Z,3.17
2023-05-04T14:02:01.355Z,3.78
2023-05-04T14:07:03.212Z,3.50
2023-05-04T14:12:05.239Z,3.40
2023-05-04T14:17:07.924Z,3.55
2023-05-04T14:22:09.683Z,3.33
2023-05-04T14:27:11.723Z,3.05
2023-05-04T14:32:13.712Z,3.45
2023-05-04T14:37:15.768Z,3.42
2023-05-04T14:42:17.616Z,2.90
2023-05-04T14:47:19.930Z,3.47
2023-05-04T14:52:22.159Z,3.10
2023-05-04T14:57:23.985Z,3.13
2023-05-04T15:02:26.804Z,3.60
2023-05-04T15:07:28.762Z,3.03
2023-05-04T15:12:30.641Z,3.08
2023-05-04T15:17:32.985Z,3.03
2023-05-04T15:22:34.883Z,3.10
2023-05-04T15:27:36.701Z,3.33
2023-05-04T15:32:38.521Z,3.40
2023-05-04T15:37:40.582Z,3.35
2023-05-04T15:42:42.671Z,3.28
2023-05-04T15:47:46.416Z,3.30
2023-05-04T15:52:48.345Z,3.42
2023-05-04T15:57:50.092Z,3.33
2023-05-04T16:02:52.195Z,2.67
2023-05-04T16:07:54.473Z,3.08
2023-05-04T16:12:56.289Z,3.53
2023-05-04T16:17:58.204Z,3.20
2023-05-04T16:22:59.980Z,3.30
2023-05-04T16:28:01.869Z,3.53
2023-05-04T16:33:04.356Z,3.00
2023-05-04T16:38:06.174Z,3.50
2023-05-04T16:43:10.215Z,3.40
2023-05-04T16:48:11.980Z,3.95
2023-05-04T16:53:13.900Z,4.28
2023-05-04T16:58:15.807Z,4.15
2023-05-04T17:03:17.605Z,4.57
2023-05-04T17:08:19.526Z,4.50
2023-05-04T17:13:21.464Z,3.90
2023-05-04T17:18:23.299Z,3.80
2023-05-04T17:23:25.241Z,4.05
2023-05-04T17:28:27.078Z,3.85
2023-05-04T17:33:30.533Z,3.80
2023-05-04T17:38:32.562Z,3.85
2023-05-04T17:43:34.333Z,3.42
2023-05-04T17:48:36.783Z,3.65
2023-05-04T17:53:38.595Z,3.15
2023-05-04T17:58:40.466Z,3.38
2023-05-04T18:03:42.753Z,3.47
2023-05-04T18:08:44.961Z,5.00
2023-05-04T18:13:46.701Z,3.63
2023-05-04T18:18:48.474Z,3.33
2023-05-04T18:23:50.339Z,3.35
2023-05-04T18:28:52.265Z,3.25
2023-05-04T18:33:54.164Z,3.35
2023-05-04T18:38:58.706Z,3.05
2023-05-04T18:44:01.351Z,3.17
2023-05-04T18:49:04.196Z,3.00
2023-05-04T18:54:06.645Z,2.95
2023-05-04T18:59:09.573Z,3.47
2023-05-04T19:04:11.352Z,3.00
2023-05-04T19:09:14.481Z,3.65
2023-05-04T19:14:16.757Z,2.88
2023-05-04T19:19:18.560Z,3.58
2023-05-04T19:24:20.566Z,3.88
2023-05-04T19:29:22.775Z,3.00
2023-05-04T19:34:24.586Z,3.10
2023-05-04T19:39:26.309Z,3.55
2023-05-04T19:44:28.079Z,2.83
2023-05-04T19:49:29.897Z,3.17
2023-05-04T19:54:31.616Z,3.50
2023-05-04T19:59:33.858Z,6.20
2023-05-04T20:04:35.637Z,4.80
2023-05-04T20:09:37.476Z,3.30
2023-05-04T20:14:41.036Z,3.03
2023-05-04T20:19:43.185Z,3.47
2023-05-04T20:24:45.150Z,3.00
2023-05-04T20:29:46.927Z,2.30
2023-05-04T20:34:48.834Z,2.70
2023-05-04T20:39:53.421Z,2.70
2023-05-04T20:44:55.284Z,2.50
2023-05-04T20:49:57.360Z,2.55
2023-05-04T20:54:59.854Z,3.17
2023-05-04T21:00:01.936Z,2.42
2023-05-04T21:05:04.045Z,2.85
2023-05-04T21:10:06.884Z,3.08
2023-05-04T21:15:10.252Z,2.75
2023-05-04T21:20:12.287Z,2.40
2023-05-04T21:25:14.270Z,2.85
2023-05-04T21:30:16.226Z,3.13
2023-05-04T21:35:21.096Z,2.65
2023-05-04T21:40:25.330Z,2.38
2023-05-04T21:45:27.321Z,3.22
2023-05-04T21:50:29.346Z,2.95
2023-05-04T21:55:31.125Z,3.10
2023-05-04T22:00:33.150Z,3.38
2023-05-04T22:05:34.928Z,3.22
2023-05-04T22:10:36.880Z,3.15
2023-05-04T22:15:49.346Z,3.25
2023-05-04T22:20:52.280Z,3.00
2023-05-04T22:25:54.075Z,3.30
2023-05-04T22:30:55.976Z,3.38
2023-05-04T22:35:57.824Z,3.20
2023-05-04T22:40:59.588Z,2.90
2023-05-04T22:46:01.398Z,3.00
2023-05-04T22:51:03.926Z,3.20
2023-05-04T22:56:06.014Z,3.45
2023-05-04T23:01:11.662Z,3.30
2023-05-04T23:06:13.499Z,3.33
2023-05-04T23:11:20.459Z,3.08
2023-05-04T23:16:22.302Z,3.63
2023-05-04T23:21:24.171Z,3.60
2023-05-04T23:26:26.103Z,3.55
2023-05-04T23:31:28.709Z,3.35
2023-05-04T23:36:30.513Z,3.40
2023-05-04T23:41:32.380Z,3.30
2023-05-04T23:46:34.215Z,3.58
2023-05-04T23:51:35.975Z,3.72
2023-05-04T23:56:37.793Z,2.92
